sensor_id;sensor_type;location;lat;lon;timestamp;pressure;altitude;pressure_sealevel;temperature;humidity
51287;BME280;37364;46.974;18.916;2023-07-09T00:00:57;154810.25;;;17.68;100.00
51287;BME280;37364;46.974;18.916;2023-07-09T00:03:27;154780.31;;;17.56;100.00
51287;BME280;37364;46.974;18.916;2023-07-09T00:05:57;154759.53;;;17.48;100.00
51287;BME280;37364;46.974;18.916;2023-07-09T00:08:31;154755.59;;;17.46;100.00
51287;BME280;37364;46.974;18.916;2023-07-09T00:11:01;154779.03;;;17.55;100.00
51287;BME280;37364;46.974;18.916;2023-07-09T00:13:31;154779.03;;;17.55;100.00
51287;BME280;37364;46.974;18.916;2023-07-09T00:16:07;154772.53;;;17.53;100.00
51287;BME280;37364;46.974;18.916;2023-07-09T00:18:41;154784.22;;;17.57;100.00
51287;BME280;37364;46.974;18.916;2023-07-09T00:21:11;154743.91;;;17.42;100.00
51287;BME280;37364;46.974;18.916;2023-07-09T00:23:44;154736.09;;;17.38;100.00
51287;BME280;37364;46.974;18.916;2023-07-09T00:26:17;154717.91;;;17.31;100.00
51287;BME280;37364;46.974;18.916;2023-07-09T00:28:50;154737.44;;;17.39;100.00
51287;BME280;37364;46.974;18.916;2023-07-09T00:31:20;154755.59;;;17.46;100.00
51287;BME280;37364;46.974;18.916;2023-07-09T00:33:52;154772.53;;;17.53;100.00
51287;BME280;37364;46.974;18.916;2023-07-09T00:36:27;154764.72;;;17.50;100.00
51287;BME280;37364;46.974;18.916;2023-07-09T00:39:01;154745.19;;;17.42;100.00
51287;BME280;37364;46.974;18.916;2023-07-09T00:41:35;154728.31;;;17.35;100.00
51287;BME280;37364;46.974;18.916;2023-07-09T00:44:18;154720.50;;;17.32;100.00
51287;BME280;37364;46.974;18.916;2023-07-09T00:47:15;154717.91;;;17.31;100.00
51287;BME280;37364;46.974;18.916;2023-07-09T00:49:48;154733.50;;;17.37;100.00
51287;BME280;37364;46.974;18.916;2023-07-09T00:52:24;154740.00;;;17.40;100.00
51287;BME280;37364;46.974;18.916;2023-07-09T00:55:05;154746.53;;;17.43;100.00
51287;BME280;37364;46.974;18.916;2023-07-09T00:57:38;154754.31;;;17.46;100.00
51287;BME280;37364;46.974;18.916;2023-07-09T01:00:11;154753.03;;;17.45;100.00
51287;BME280;37364;46.974;18.916;2023-07-09T01:02:46;154754.31;;;17.46;100.00
51287;BME280;37364;46.974;18.916;2023-07-09T01:05:18;154734.81;;;17.38;100.00
51287;BME280;37364;46.974;18.916;2023-07-09T01:07:48;154741.34;;;17.41;100.00
51287;BME280;37364;46.974;18.916;2023-07-09T01:10:23;154724.41;;;17.34;100.00
51287;BME280;37364;46.974;18.916;2023-07-09T01:12:53;154721.81;;;17.33;100.00
51287;BME280;37364;46.974;18.916;2023-07-09T01:15:24;154720.50;;;17.32;100.00
51287;BME280;37364;46.974;18.916;2023-07-09T01:17:54;154684.09;;;17.18;100.00
51287;BME280;37364;46.974;18.916;2023-07-09T01:20:26;154655.47;;;17.07;100.00
51287;BME280;37364;46.974;18.916;2023-07-09T01:22:59;154676.25;;;17.15;100.00
51287;BME280;37364;46.974;18.916;2023-07-09T01:25:32;154686.72;;;17.19;100.00
51287;BME280;37364;46.974;18.916;2023-07-09T01:28:02;154677.59;;;17.15;100.00
51287;BME280;37364;46.974;18.916;2023-07-09T01:30:36;154680.19;;;17.16;100.00
51287;BME280;37364;46.974;18.916;2023-07-09T01:33:07;154673.69;;;17.14;100.00
51287;BME280;37364;46.974;18.916;2023-07-09T01:35:39;154677.59;;;17.15;100.00
51287;BME280;37364;46.974;18.916;2023-07-09T01:38:13;154671.06;;;17.13;100.00
51287;BME280;37364;46.974;18.916;2023-07-09T01:40:43;154671.06;;;17.13;100.00
51287;BME280;37364;46.974;18.916;2023-07-09T01:43:14;154668.50;;;17.12;100.00
51287;BME280;37364;46.974;18.916;2023-07-09T01:45:44;154656.81;;;17.07;100.00
51287;BME280;37364;46.974;18.916;2023-07-09T01:48:17;154639.88;;;17.00;100.00
51287;BME280;37364;46.974;18.916;2023-07-09T01:50:47;154590.41;;;16.81;100.00
51287;BME280;37364;46.974;18.916;2023-07-09T01:53:25;154616.44;;;16.91;100.00
51287;BME280;37364;46.974;18.916;2023-07-09T01:55:58;154577.44;;;16.76;100.00
51287;BME280;37364;46.974;18.916;2023-07-09T01:58:28;154577.44;;;16.76;100.00
51287;BME280;37364;46.974;18.916;2023-07-09T02:00:59;154595.66;;;16.83;100.00
51287;BME280;37364;46.974;18.916;2023-07-09T02:03:29;154577.44;;;16.76;100.00
51287;BME280;37364;46.974;18.916;2023-07-09T02:06:00;154578.72;;;16.76;100.00
51287;BME280;37364;46.974;18.916;2023-07-09T02:08:39;154577.44;;;16.76;100.00
51287;BME280;37364;46.974;18.916;2023-07-09T02:11:09;154576.09;;;16.75;100.00
51287;BME280;37364;46.974;18.916;2023-07-09T02:13:40;154574.81;;;16.75;100.00
51287;BME280;37364;46.974;18.916;2023-07-09T02:16:10;154581.31;;;16.77;100.00
51287;BME280;37364;46.974;18.916;2023-07-09T02:18:40;154573.53;;;16.74;100.00
51287;BME280;37364;46.974;18.916;2023-07-09T02:21:10;154525.41;;;16.55;100.00
51287;BME280;37364;46.974;18.916;2023-07-09T02:23:43;154499.41;;;16.45;100.00
51287;BME280;37364;46.974;18.916;2023-07-09T02:26:13;154511.09;;;16.50;100.00
51287;BME280;37364;46.974;18.916;2023-07-09T02:28:43;154507.19;;;16.48;100.00
51287;BME280;37364;46.974;18.916;2023-07-09T02:31:13;154525.41;;;16.55;100.00
51287;BME280;37364;46.974;18.916;2023-07-09T02:33:44;154517.59;;;16.52;100.00
51287;BME280;37364;46.974;18.916;2023-07-09T02:36:14;154525.41;;;16.55;100.00
51287;BME280;37364;46.974;18.916;2023-07-09T02:38:47;154513.72;;;16.51;100.00
51287;BME280;37364;46.974;18.916;2023-07-09T02:41:17;154505.91;;;16.48;100.00
51287;BME280;37364;46.974;18.916;2023-07-09T02:43:47;154504.63;;;16.47;100.00
51287;BME280;37364;46.974;18.916;2023-07-09T02:46:18;154486.41;;;16.40;100.00
51287;BME280;37364;46.974;18.916;2023-07-09T02:48:49;154460.41;;;16.30;100.00
51287;BME280;37364;46.974;18.916;2023-07-09T02:51:19;154434.44;;;16.19;100.00
51287;BME280;37364;46.974;18.916;2023-07-09T02:53:52;154446.13;;;16.24;100.00
51287;BME280;37364;46.974;18.916;2023-07-09T02:56:22;154442.19;;;16.23;100.00
51287;BME280;37364;46.974;18.916;2023-07-09T02:58:53;154447.41;;;16.25;100.00
51287;BME280;37364;46.974;18.916;2023-07-09T03:01:23;154463.03;;;16.31;100.00
51287;BME280;37364;46.974;18.916;2023-07-09T03:03:55;154464.31;;;16.31;100.00
51287;BME280;37364;46.974;18.916;2023-07-09T03:06:27;154455.22;;;16.28;100.00
51287;BME280;37364;46.974;18.916;2023-07-09T03:08:59;154456.50;;;16.28;100.00
51287;BME280;37364;46.974;18.916;2023-07-09T03:11:31;154456.50;;;16.28;100.00
51287;BME280;37364;46.974;18.916;2023-07-09T03:14:02;154439.63;;;16.21;100.00
51287;BME280;37364;46.974;18.916;2023-07-09T03:16:33;154431.81;;;16.18;100.00
51287;BME280;37364;46.974;18.916;2023-07-09T03:19:03;154431.81;;;16.18;100.00
51287;BME280;37364;46.974;18.916;2023-07-09T03:21:34;154429.25;;;16.17;100.00
51287;BME280;37364;46.974;18.916;2023-07-09T03:24:07;154425.31;;;16.16;100.00
51287;BME280;37364;46.974;18.916;2023-07-09T03:26:38;154385.06;;;16.00;100.00
51287;BME280;37364;46.974;18.916;2023-07-09T03:29:08;154394.16;;;16.04;100.00
51287;BME280;37364;46.974;18.916;2023-07-09T03:31:38;154408.44;;;16.09;100.00
51287;BME280;37364;46.974;18.916;2023-07-09T03:34:09;154404.53;;;16.08;100.00
51287;BME280;37364;46.974;18.916;2023-07-09T03:36:40;154408.44;;;16.09;100.00
51287;BME280;37364;46.974;18.916;2023-07-09T03:39:13;154421.41;;;16.14;100.00
51287;BME280;37364;46.974;18.916;2023-07-09T03:41:43;154439.63;;;16.21;100.00
51287;BME280;37364;46.974;18.916;2023-07-09T03:44:13;154425.31;;;16.16;100.00
51287;BME280;37364;46.974;18.916;2023-07-09T03:46:43;154439.63;;;16.21;100.00
51287;BME280;37364;46.974;18.916;2023-07-09T03:49:14;154453.94;;;16.27;100.00
51287;BME280;37364;46.974;18.916;2023-07-09T03:51:47;154476.00;;;16.36;100.00
51287;BME280;37364;46.974;18.916;2023-07-09T03:54:19;154468.25;;;16.33;100.00
51287;BME280;37364;46.974;18.916;2023-07-09T03:56:53;154482.50;;;16.38;100.00
51287;BME280;37364;46.974;18.916;2023-07-09T03:59:23;154496.78;;;16.44;100.00
51287;BME280;37364;46.974;18.916;2023-07-09T04:01:53;154518.91;;;16.53;100.00
51287;BME280;37364;46.974;18.916;2023-07-09T04:04:24;154533.22;;;16.58;100.00
51287;BME280;37364;46.974;18.916;2023-07-09T04:06:54;154557.94;;;16.68;100.00
51287;BME280;37364;46.974;18.916;2023-07-09T04:09:27;154587.84;;;16.80;100.00
51287;BME280;37364;46.974;18.916;2023-07-09T04:11:57;154630.75;;;16.97;100.00
51287;BME280;37364;46.974;18.916;2023-07-09T04:14:28;154662.00;;;17.09;100.00
51287;BME280;37364;46.974;18.916;2023-07-09T04:16:58;154699.69;;;17.24;100.00
51287;BME280;37364;46.974;18.916;2023-07-09T04:19:28;154714.00;;;17.30;100.00
51287;BME280;37364;46.974;18.916;2023-07-09T04:21:59;154737.44;;;17.39;100.00
51287;BME280;37364;46.974;18.916;2023-07-09T04:24:31;154767.34;;;17.51;100.00
51287;BME280;37364;46.974;18.916;2023-07-09T04:27:03;154841.50;;;17.80;100.00
51287;BME280;37364;46.974;18.916;2023-07-09T04:29:34;154913.09;;;18.08;100.00
51287;BME280;37364;46.974;18.916;2023-07-09T04:32:06;154987.28;;;18.37;100.00
51287;BME280;37364;46.974;18.916;2023-07-09T04:34:38;155057.56;;;18.65;100.00
51287;BME280;37364;46.974;18.916;2023-07-09T04:37:10;155123.97;;;18.91;100.00
51287;BME280;37364;46.974;18.916;2023-07-09T04:39:44;155180.00;;;19.13;100.00
51287;BME280;37364;46.974;18.916;2023-07-09T04:42:16;155281.56;;;19.53;100.00
51287;BME280;37364;46.974;18.916;2023-07-09T04:44:46;155374.13;;;19.90;100.00
51287;BME280;37364;46.974;18.916;2023-07-09T04:47:16;155426.19;;;20.10;100.00
51287;BME280;37364;46.974;18.916;2023-07-09T04:49:47;155503.09;;;20.41;100.00
51287;BME280;37364;46.974;18.916;2023-07-09T04:52:17;155561.75;;;20.64;100.00
51287;BME280;37364;46.974;18.916;2023-07-09T04:54:51;155705.16;;;21.20;100.00
51287;BME280;37364;46.974;18.916;2023-07-09T04:57:21;155741.69;;;21.35;100.00
51287;BME280;37364;46.974;18.916;2023-07-09T04:59:51;155786.03;;;21.52;100.00
51287;BME280;37364;46.974;18.916;2023-07-09T05:02:22;155818.66;;;21.65;100.00
51287;BME280;37364;46.974;18.916;2023-07-09T05:04:52;155898.22;;;21.96;100.00
51287;BME280;37364;46.974;18.916;2023-07-09T05:07:22;155932.16;;;22.09;100.00
51287;BME280;37364;46.974;18.916;2023-07-09T05:09:55;155987.00;;;22.31;100.00
51287;BME280;37364;46.974;18.916;2023-07-09T05:12:26;156063.94;;;22.61;100.00
51287;BME280;37364;46.974;18.916;2023-07-09T05:14:56;156101.81;;;22.76;100.00
51287;BME280;37364;46.974;18.916;2023-07-09T05:17:26;156197.13;;;23.14;100.00
51287;BME280;37364;46.974;18.916;2023-07-09T05:19:56;156207.56;;;23.18;100.00
51287;BME280;37364;46.974;18.916;2023-07-09T05:22:26;156268.91;;;23.42;100.00
51287;BME280;37364;46.974;18.916;2023-07-09T05:24:59;156278.03;;;23.45;100.00
51287;BME280;37364;46.974;18.916;2023-07-09T05:27:29;156347.25;;;23.73;100.00
51287;BME280;37364;46.974;18.916;2023-07-09T05:29:59;156417.81;;;24.00;100.00
51287;BME280;37364;46.974;18.916;2023-07-09T05:32:30;156456.97;;;24.16;100.00
51287;BME280;37364;46.974;18.916;2023-07-09T05:35:00;156536.66;;;24.47;100.00
51287;BME280;37364;46.974;18.916;2023-07-09T05:37:30;156585.06;;;24.66;100.00
51287;BME280;37364;46.974;18.916;2023-07-09T05:40:04;156641.22;;;24.88;100.00
51287;BME280;37364;46.974;18.916;2023-07-09T05:42:35;156696.09;;;25.10;100.00
51287;BME280;37364;46.974;18.916;2023-07-09T05:45:06;156791.53;;;25.47;100.00
51287;BME280;37364;46.974;18.916;2023-07-09T05:47:37;156812.44;;;25.55;96.24
51287;BME280;37364;46.974;18.916;2023-07-09T05:50:08;156796.78;;;25.49;90.71
51287;BME280;37364;46.974;18.916;2023-07-09T05:52:38;156867.34;;;25.77;92.62
51287;BME280;37364;46.974;18.916;2023-07-09T05:55:11;156876.50;;;25.80;87.39
51287;BME280;37364;46.974;18.916;2023-07-09T05:57:41;156951.06;;;26.10;90.11
51287;BME280;37364;46.974;18.916;2023-07-09T06:00:12;156978.50;;;26.20;89.45
51287;BME280;37364;46.974;18.916;2023-07-09T06:02:43;156985.06;;;26.23;85.46
51287;BME280;37364;46.974;18.916;2023-07-09T06:05:14;157046.50;;;26.47;85.80
51287;BME280;37364;46.974;18.916;2023-07-09T06:07:44;157114.59;;;26.74;82.09
51287;BME280;37364;46.974;18.916;2023-07-09T06:10:17;157138.09;;;26.83;80.32
51287;BME280;37364;46.974;18.916;2023-07-09T06:12:48;157151.19;;;26.88;80.84
51287;BME280;37364;46.974;18.916;2023-07-09T06:15:20;157227.06;;;27.18;80.64
51287;BME280;37364;46.974;18.916;2023-07-09T06:17:50;157022.97;;;26.38;78.83
51287;BME280;37364;46.974;18.916;2023-07-09T06:20:20;156869.97;;;25.78;76.20
51287;BME280;37364;46.974;18.916;2023-07-09T06:22:51;157138.09;;;26.83;82.77
51287;BME280;37364;46.974;18.916;2023-07-09T06:25:23;157270.28;;;27.35;77.36
51287;BME280;37364;46.974;18.916;2023-07-09T06:27:53;157325.25;;;27.56;77.34
51287;BME280;37364;46.974;18.916;2023-07-09T06:30:24;157403.72;;;27.87;76.92
51287;BME280;37364;46.974;18.916;2023-07-09T06:32:56;157461.38;;;28.10;78.05
51287;BME280;37364;46.974;18.916;2023-07-09T06:35:26;157505.88;;;28.27;72.84
51287;BME280;37364;46.974;18.916;2023-07-09T06:37:56;157509.81;;;28.29;77.37
51287;BME280;37364;46.974;18.916;2023-07-09T06:40:29;157474.47;;;28.15;72.27
51287;BME280;37364;46.974;18.916;2023-07-09T06:42:59;157508.47;;;28.28;65.87
51287;BME280;37364;46.974;18.916;2023-07-09T06:45:34;157424.75;;;27.95;69.85
51287;BME280;37364;46.974;18.916;2023-07-09T06:48:05;157556.91;;;28.47;65.09
51287;BME280;37364;46.974;18.916;2023-07-09T06:50:36;157524.19;;;28.34;58.99
51287;BME280;37364;46.974;18.916;2023-07-09T06:53:06;157560.88;;;28.49;68.44
51287;BME280;37364;46.974;18.916;2023-07-09T06:55:39;157597.53;;;28.63;60.60
51287;BME280;37364;46.974;18.916;2023-07-09T06:58:10;157627.66;;;28.75;62.68
51287;BME280;37364;46.974;18.916;2023-07-09T07:00:40;157672.19;;;28.92;61.77
51287;BME280;37364;46.974;18.916;2023-07-09T07:03:11;157683.94;;;28.97;63.79
51287;BME280;37364;46.974;18.916;2023-07-09T07:05:43;157686.59;;;28.98;65.05
51287;BME280;37364;46.974;18.916;2023-07-09T07:08:16;157640.78;;;28.80;55.55
51287;BME280;37364;46.974;18.916;2023-07-09T07:10:53;157613.25;;;28.69;55.38
51287;BME280;37364;46.974;18.916;2023-07-09T07:13:29;157701.00;;;29.04;59.69
51287;BME280;37364;46.974;18.916;2023-07-09T07:16:00;157704.94;;;29.05;58.64
51287;BME280;37364;46.974;18.916;2023-07-09T07:18:31;157622.44;;;28.73;59.44
51287;BME280;37364;46.974;18.916;2023-07-09T07:21:05;157737.69;;;29.18;57.36
51287;BME280;37364;46.974;18.916;2023-07-09T07:23:35;157778.28;;;29.34;65.16
51287;BME280;37364;46.974;18.916;2023-07-09T07:26:08;157728.53;;;29.14;61.50
51287;BME280;37364;46.974;18.916;2023-07-09T07:28:38;157677.41;;;28.94;60.06
51287;BME280;37364;46.974;18.916;2023-07-09T07:31:08;157639.47;;;28.79;65.07
51287;BME280;37364;46.974;18.916;2023-07-09T07:33:40;157571.38;;;28.53;62.15
51287;BME280;37364;46.974;18.916;2023-07-09T07:36:11;157680.06;;;28.95;62.62
51287;BME280;37364;46.974;18.916;2023-07-09T07:38:44;157669.59;;;28.91;58.24
51287;BME280;37364;46.974;18.916;2023-07-09T07:41:17;157791.41;;;29.39;60.00
51287;BME280;37364;46.974;18.916;2023-07-09T07:43:47;157835.94;;;29.56;58.27
51287;BME280;37364;46.974;18.916;2023-07-09T07:46:18;157889.72;;;29.77;59.06
51287;BME280;37364;46.974;18.916;2023-07-09T07:48:48;157875.28;;;29.72;55.70
51287;BME280;37364;46.974;18.916;2023-07-09T07:51:19;157939.44;;;29.97;58.56
51287;BME280;37364;46.974;18.916;2023-07-09T07:53:49;157843.78;;;29.60;53.41
51287;BME280;37364;46.974;18.916;2023-07-09T07:56:22;157892.31;;;29.79;58.14
51287;BME280;37364;46.974;18.916;2023-07-09T07:58:52;157867.34;;;29.69;54.93
51287;BME280;37364;46.974;18.916;2023-07-09T08:01:23;157940.78;;;29.98;56.58
51287;BME280;37364;46.974;18.916;2023-07-09T08:03:53;157898.84;;;29.81;55.29
51287;BME280;37364;46.974;18.916;2023-07-09T08:06:24;157906.72;;;29.84;57.76
51287;BME280;37364;46.974;18.916;2023-07-09T08:08:54;158016.75;;;30.27;57.05
51287;BME280;37364;46.974;18.916;2023-07-09T08:11:27;158067.91;;;30.47;58.42
51287;BME280;37364;46.974;18.916;2023-07-09T08:13:59;157930.31;;;29.93;49.91
51287;BME280;37364;46.974;18.916;2023-07-09T08:16:29;157875.28;;;29.72;51.57
51287;BME280;37364;46.974;18.916;2023-07-09T08:19:00;157782.22;;;29.35;49.73
51287;BME280;37364;46.974;18.916;2023-07-09T08:21:30;157613.25;;;28.69;50.64
51287;BME280;37364;46.974;18.916;2023-07-09T08:24:00;157816.28;;;29.49;53.92
51287;BME280;37364;46.974;18.916;2023-07-09T08:26:33;157943.38;;;29.99;54.06
51287;BME280;37364;46.974;18.916;2023-07-09T08:29:05;157839.88;;;29.58;50.25
51287;BME280;37364;46.974;18.916;2023-07-09T08:31:35;157834.66;;;29.56;53.09
51287;BME280;37364;46.974;18.916;2023-07-09T08:34:06;157880.53;;;29.74;49.82
51287;BME280;37364;46.974;18.916;2023-07-09T08:36:37;157995.81;;;30.19;50.37
51287;BME280;37364;46.974;18.916;2023-07-09T08:39:07;157946.03;;;30.00;49.12
51287;BME280;37364;46.974;18.916;2023-07-09T08:41:44;157923.72;;;29.91;48.12
51287;BME280;37364;46.974;18.916;2023-07-09T08:44:33;157841.19;;;29.58;45.32
51287;BME280;37364;46.974;18.916;2023-07-09T08:47:07;157815.00;;;29.48;47.06
51287;BME280;37364;46.974;18.916;2023-07-09T08:49:45;157791.41;;;29.39;46.97
51287;BME280;37364;46.974;18.916;2023-07-09T08:52:23;157947.31;;;30.00;46.65
51287;BME280;37364;46.974;18.916;2023-07-09T08:54:55;157786.16;;;29.37;45.83
51287;BME280;37364;46.974;18.916;2023-07-09T08:57:34;157872.59;;;29.71;49.31
51287;BME280;37364;46.974;18.916;2023-07-09T09:00:13;158050.88;;;30.41;50.20
51287;BME280;37364;46.974;18.916;2023-07-09T09:02:50;158175.44;;;30.89;51.60
51287;BME280;37364;46.974;18.916;2023-07-09T09:05:22;157919.84;;;29.89;48.59
51287;BME280;37364;46.974;18.916;2023-07-09T09:07:58;157998.41;;;30.20;47.74
51287;BME280;37364;46.974;18.916;2023-07-09T09:10:40;158090.22;;;30.56;48.04
51287;BME280;37364;46.974;18.916;2023-07-09T09:13:16;157980.09;;;30.13;47.77
51287;BME280;37364;46.974;18.916;2023-07-09T09:15:48;157921.13;;;29.90;44.54
51287;BME280;37364;46.974;18.916;2023-07-09T09:18:21;157897.53;;;29.81;44.15
51287;BME280;37364;46.974;18.916;2023-07-09T09:20:57;158184.56;;;30.93;51.71
51287;BME280;37364;46.974;18.916;2023-07-09T09:23:37;158227.84;;;31.10;48.25
51287;BME280;37364;46.974;18.916;2023-07-09T09:26:16;158137.38;;;30.74;44.78
51287;BME280;37364;46.974;18.916;2023-07-09T09:28:51;158171.44;;;30.88;45.63
51287;BME280;37364;46.974;18.916;2023-07-09T09:31:24;158195.06;;;30.97;47.82
51287;BME280;37364;46.974;18.916;2023-07-09T09:33:56;158193.75;;;30.97;42.67
51287;BME280;37364;46.974;18.916;2023-07-09T09:36:27;158275.00;;;31.28;43.70
51287;BME280;37364;46.974;18.916;2023-07-09T09:39:02;158254.06;;;31.20;41.96
51287;BME280;37364;46.974;18.916;2023-07-09T09:41:34;158275.00;;;31.28;44.48
51287;BME280;37364;46.974;18.916;2023-07-09T09:44:18;158365.56;;;31.64;42.97
51287;BME280;37364;46.974;18.916;2023-07-09T09:46:49;158155.72;;;30.82;41.69
51287;BME280;37364;46.974;18.916;2023-07-09T09:49:19;158142.59;;;30.77;41.05
51287;BME280;37364;46.974;18.916;2023-07-09T09:51:50;158306.50;;;31.41;41.44
51287;BME280;37364;46.974;18.916;2023-07-09T09:54:27;158233.09;;;31.12;39.72
51287;BME280;37364;46.974;18.916;2023-07-09T09:56:58;158244.88;;;31.17;39.59
51287;BME280;37364;46.974;18.916;2023-07-09T09:59:33;158344.56;;;31.56;43.91
51287;BME280;37364;46.974;18.916;2023-07-09T10:02:16;158484.91;;;32.10;45.02
51287;BME280;37364;46.974;18.916;2023-07-09T10:04:47;158505.94;;;32.19;41.78
51287;BME280;37364;46.974;18.916;2023-07-09T10:07:21;158536.09;;;32.30;42.81
51287;BME280;37364;46.974;18.916;2023-07-09T10:09:54;158551.81;;;32.37;42.04
51287;BME280;37364;46.974;18.916;2023-07-09T10:12:36;158481.00;;;32.09;39.90
51287;BME280;37364;46.974;18.916;2023-07-09T10:15:27;158321.00;;;31.46;38.87
51287;BME280;37364;46.974;18.916;2023-07-09T10:18:09;158431.13;;;31.89;40.84
51287;BME280;37364;46.974;18.916;2023-07-09T10:20:47;158223.91;;;31.08;40.22
51287;BME280;37364;46.974;18.916;2023-07-09T10:23:24;158418.00;;;31.84;44.20
51287;BME280;37364;46.974;18.916;2023-07-09T10:26:02;158383.91;;;31.71;40.74
51287;BME280;37364;46.974;18.916;2023-07-09T10:29:13;158255.41;;;31.21;41.96
51287;BME280;37364;46.974;18.916;2023-07-09T10:31:56;158225.25;;;31.09;38.54
51287;BME280;37364;46.974;18.916;2023-07-09T10:34:31;158381.31;;;31.70;38.83
51287;BME280;37364;46.974;18.916;2023-07-09T10:37:14;158511.19;;;32.21;39.35
51287;BME280;37364;46.974;18.916;2023-07-09T10:39:53;158562.31;;;32.41;42.44
51287;BME280;37364;46.974;18.916;2023-07-09T10:42:29;158507.22;;;32.19;38.01
51287;BME280;37364;46.974;18.916;2023-07-09T10:45:03;158562.31;;;32.41;36.83
51287;BME280;37364;46.974;18.916;2023-07-09T10:47:43;158519.00;;;32.24;36.83
51287;BME280;37364;46.974;18.916;2023-07-09T10:50:17;158692.22;;;32.92;39.75
51287;BME280;37364;46.974;18.916;2023-07-09T10:52:51;158694.81;;;32.93;38.10
51287;BME280;37364;46.974;18.916;2023-07-09T10:55:30;158658.13;;;32.78;39.51
51287;BME280;37364;46.974;18.916;2023-07-09T10:58:04;158664.66;;;32.81;39.41
51287;BME280;37364;46.974;18.916;2023-07-09T11:00:41;158537.41;;;32.31;33.91
51287;BME280;37364;46.974;18.916;2023-07-09T11:03:18;158612.22;;;32.60;37.97
51287;BME280;37364;46.974;18.916;2023-07-09T11:05:50;158698.78;;;32.94;36.89
51287;BME280;37364;46.974;18.916;2023-07-09T11:08:25;158685.63;;;32.89;36.85
51287;BME280;37364;46.974;18.916;2023-07-09T11:11:01;158696.13;;;32.93;39.33
51287;BME280;37364;46.974;18.916;2023-07-09T11:13:37;158790.66;;;33.30;35.25
51287;BME280;37364;46.974;18.916;2023-07-09T11:16:25;158709.28;;;32.98;35.38
51287;BME280;37364;46.974;18.916;2023-07-09T11:19:03;158721.06;;;33.03;35.34
51287;BME280;37364;46.974;18.916;2023-07-09T11:21:40;158799.84;;;33.34;38.05
51287;BME280;37364;46.974;18.916;2023-07-09T11:24:30;158704.03;;;32.96;37.43
51287;BME280;37364;46.974;18.916;2023-07-09T11:27:00;158819.53;;;33.41;36.84
51287;BME280;37364;46.974;18.916;2023-07-09T11:29:30;158786.75;;;33.28;34.29
51287;BME280;37364;46.974;18.916;2023-07-09T11:32:08;158788.06;;;33.29;35.75
51287;BME280;37364;46.974;18.916;2023-07-09T11:34:47;158601.72;;;32.56;31.27
51287;BME280;37364;46.974;18.916;2023-07-09T11:37:17;158562.31;;;32.41;32.72
51287;BME280;37364;46.974;18.916;2023-07-09T11:39:48;158642.38;;;32.72;34.00
51287;BME280;37364;46.974;18.916;2023-07-09T11:42:27;158845.75;;;33.52;35.85
51287;BME280;37364;46.974;18.916;2023-07-09T11:45:02;158679.09;;;32.86;33.39
51287;BME280;37364;46.974;18.916;2023-07-09T11:47:40;158776.22;;;33.24;39.46
51287;BME280;37364;46.974;18.916;2023-07-09T11:50:22;158739.50;;;33.10;34.25
51287;BME280;37364;46.974;18.916;2023-07-09T11:52:56;158760.47;;;33.18;33.18
51287;BME280;37364;46.974;18.916;2023-07-09T11:55:29;158767.06;;;33.21;32.29
51287;BME280;37364;46.974;18.916;2023-07-09T11:58:01;158701.41;;;32.95;31.85
51287;BME280;37364;46.974;18.916;2023-07-09T12:00:38;158658.13;;;32.78;32.19
51287;BME280;37364;46.974;18.916;2023-07-09T12:03:14;158744.75;;;33.12;32.96
51287;BME280;37364;46.974;18.916;2023-07-09T12:05:51;158835.28;;;33.47;31.96
51287;BME280;37364;46.974;18.916;2023-07-09T12:08:26;158822.19;;;33.42;31.94
51287;BME280;37364;46.974;18.916;2023-07-09T12:10:57;158823.47;;;33.43;31.56
51287;BME280;37364;46.974;18.916;2023-07-09T12:13:28;158812.97;;;33.39;32.96
51287;BME280;37364;46.974;18.916;2023-07-09T12:15:58;158697.47;;;32.94;34.35
51287;BME280;37364;46.974;18.916;2023-07-09T12:18:29;158853.66;;;33.55;33.51
51287;BME280;37364;46.974;18.916;2023-07-09T12:21:08;158895.69;;;33.71;32.91
51287;BME280;37364;46.974;18.916;2023-07-09T12:23:40;158923.28;;;33.82;30.58
51287;BME280;37364;46.974;18.916;2023-07-09T12:26:13;158897.03;;;33.72;32.75
51287;BME280;37364;46.974;18.916;2023-07-09T12:28:49;158890.44;;;33.69;30.34
51287;BME280;37364;46.974;18.916;2023-07-09T12:31:25;158971.81;;;34.01;30.26
51287;BME280;37364;46.974;18.916;2023-07-09T12:33:57;158848.41;;;33.53;31.00
51287;BME280;37364;46.974;18.916;2023-07-09T12:36:31;158820.84;;;33.42;31.58
51287;BME280;37364;46.974;18.916;2023-07-09T12:39:02;158768.38;;;33.21;30.50
51287;BME280;37364;46.974;18.916;2023-07-09T12:41:35;158945.56;;;33.91;33.66
51287;BME280;37364;46.974;18.916;2023-07-09T12:44:15;158885.19;;;33.67;32.01
51287;BME280;37364;46.974;18.916;2023-07-09T12:46:47;158799.84;;;33.34;33.57
51287;BME280;37364;46.974;18.916;2023-07-09T12:49:22;158726.31;;;33.05;31.66
51287;BME280;37364;46.974;18.916;2023-07-09T12:52:01;158687.00;;;32.89;32.19
51287;BME280;37364;46.974;18.916;2023-07-09T12:54:32;158704.03;;;32.96;32.10
51287;BME280;37364;46.974;18.916;2023-07-09T12:57:13;158601.72;;;32.56;32.36
51287;BME280;37364;46.974;18.916;2023-07-09T12:59:46;158478.38;;;32.08;33.39
51287;BME280;37364;46.974;18.916;2023-07-09T13:02:18;158584.59;;;32.49;33.83
51287;BME280;37364;46.974;18.916;2023-07-09T13:04:49;158690.88;;;32.91;31.98